sensor_id;sensor_type;location;lat;lon;timestamp;temperature;humidity
52669;DHT22;59898;52.786;6.892;2023-02-18T00:02:07;8.30;99.90
52669;DHT22;59898;52.786;6.892;2023-02-18T00:05:28;8.40;99.90
52669;DHT22;59898;52.786;6.892;2023-02-18T00:08:50;8.40;99.90
52669;DHT22;59898;52.786;6.892;2023-02-18T00:12:11;8.40;99.90
52669;DHT22;59898;52.786;6.892;2023-02-18T00:15:34;8.40;99.90
52669;DHT22;59898;52.786;6.892;2023-02-18T00:18:56;8.40;99.90
52669;DHT22;59898;52.786;6.892;2023-02-18T00:22:17;8.40;99.90
52669;DHT22;59898;52.786;6.892;2023-02-18T00:25:37;8.40;99.90
52669;DHT22;59898;52.786;6.892;2023-02-18T00:28:58;8.40;99.90
52669;DHT22;59898;52.786;6.892;2023-02-18T00:32:19;8.40;99.90
52669;DHT22;59898;52.786;6.892;2023-02-18T00:35:39;8.50;99.90
52669;DHT22;59898;52.786;6.892;2023-02-18T00:39:02;8.40;99.90
52669;DHT22;59898;52.786;6.892;2023-02-18T00:42:23;8.50;99.90
52669;DHT22;59898;52.786;6.892;2023-02-18T00:45:44;8.50;99.90
52669;DHT22;59898;52.786;6.892;2023-02-18T00:49:04;8.40;99.90
52669;DHT22;59898;52.786;6.892;2023-02-18T00:52:25;8.50;99.90
52669;DHT22;59898;52.786;6.892;2023-02-18T00:55:46;8.50;99.90
52669;DHT22;59898;52.786;6.892;2023-02-18T00:59:09;8.50;99.90
52669;DHT22;59898;52.786;6.892;2023-02-18T01:02:30;8.50;99.90
52669;DHT22;59898;52.786;6.892;2023-02-18T01:05:51;8.50;99.90
52669;DHT22;59898;52.786;6.892;2023-02-18T01:09:12;8.50;99.90
52669;DHT22;59898;52.786;6.892;2023-02-18T01:12:32;8.50;99.90
52669;DHT22;59898;52.786;6.892;2023-02-18T01:15:54;8.60;99.90
52669;DHT22;59898;52.786;6.892;2023-02-18T01:19:14;8.50;99.90
52669;DHT22;59898;52.786;6.892;2023-02-18T01:22:36;8.50;99.90
52669;DHT22;59898;52.786;6.892;2023-02-18T01:25:57;8.60;99.90
52669;DHT22;59898;52.786;6.892;2023-02-18T01:29:18;8.60;99.90
52669;DHT22;59898;52.786;6.892;2023-02-18T01:32:38;8.60;99.90
52669;DHT22;59898;52.786;6.892;2023-02-18T01:35:59;8.60;99.90
52669;DHT22;59898;52.786;6.892;2023-02-18T01:39:20;8.60;99.90
52669;DHT22;59898;52.786;6.892;2023-02-18T01:42:41;8.60;99.90
52669;DHT22;59898;52.786;6.892;2023-02-18T01:46:04;8.60;99.90
52669;DHT22;59898;52.786;6.892;2023-02-18T01:49:31;8.70;99.90
52669;DHT22;59898;52.786;6.892;2023-02-18T01:52:52;8.70;99.90
52669;DHT22;59898;52.786;6.892;2023-02-18T01:56:25;8.60;99.90
52669;DHT22;59898;52.786;6.892;2023-02-18T01:59:56;8.70;99.90
52669;DHT22;59898;52.786;6.892;2023-02-18T02:03:18;8.70;99.90
52669;DHT22;59898;52.786;6.892;2023-02-18T02:06:38;8.60;99.90
52669;DHT22;59898;52.786;6.892;2023-02-18T02:09:59;8.60;99.90
52669;DHT22;59898;52.786;6.892;2023-02-18T02:17:24;8.60;99.90
52669;DHT22;59898;52.786;6.892;2023-02-18T02:21:28;8.70;99.90
52669;DHT22;59898;52.786;6.892;2023-02-18T02:29:10;8.70;99.90
52669;DHT22;59898;52.786;6.892;2023-02-18T02:32:54;8.80;99.90
52669;DHT22;59898;52.786;6.892;2023-02-18T02:36:38;8.80;99.90
52669;DHT22;59898;52.786;6.892;2023-02-18T02:40:56;8.80;99.90
52669;DHT22;59898;52.786;6.892;2023-02-18T02:51:25;8.80;99.90
52669;DHT22;59898;52.786;6.892;2023-02-18T02:54:48;8.90;99.90
52669;DHT22;59898;52.786;6.892;2023-02-18T02:58:14;8.90;99.90
52669;DHT22;59898;52.786;6.892;2023-02-18T03:20:54;9.00;99.90
52669;DHT22;59898;52.786;6.892;2023-02-18T03:24:22;8.90;99.90
52669;DHT22;59898;52.786;6.892;2023-02-18T03:27:56;8.90;99.90
52669;DHT22;59898;52.786;6.892;2023-02-18T03:31:20;9.00;99.90
52669;DHT22;59898;52.786;6.892;2023-02-18T03:34:46;9.00;99.90
52669;DHT22;59898;52.786;6.892;2023-02-18T03:38:13;9.00;99.90
52669;DHT22;59898;52.786;6.892;2023-02-18T03:41:36;9.00;99.90
52669;DHT22;59898;52.786;6.892;2023-02-18T03:44:57;9.00;99.90
52669;DHT22;59898;52.786;6.892;2023-02-18T03:48:18;9.00;99.90
52669;DHT22;59898;52.786;6.892;2023-02-18T03:51:39;9.00;99.90
52669;DHT22;59898;52.786;6.892;2023-02-18T03:55:00;9.00;99.90
52669;DHT22;59898;52.786;6.892;2023-02-18T03:58:21;9.10;99.90
52669;DHT22;59898;52.786;6.892;2023-02-18T04:01:41;9.10;99.90
52669;DHT22;59898;52.786;6.892;2023-02-18T04:05:02;9.10;99.90
52669;DHT22;59898;52.786;6.892;2023-02-18T04:08:23;9.10;99.90
52669;DHT22;59898;52.786;6.892;2023-02-18T04:11:44;9.10;99.90
52669;DHT22;59898;52.786;6.892;2023-02-18T04:15:05;9.10;99.90
52669;DHT22;59898;52.786;6.892;2023-02-18T04:18:25;9.10;99.90
52669;DHT22;59898;52.786;6.892;2023-02-18T04:21:46;9.10;99.90
52669;DHT22;59898;52.786;6.892;2023-02-18T04:25:07;9.10;99.90
52669;DHT22;59898;52.786;6.892;2023-02-18T04:28:28;9.10;99.90
52669;DHT22;59898;52.786;6.892;2023-02-18T04:31:48;9.20;99.90
52669;DHT22;59898;52.786;6.892;2023-02-18T04:35:09;9.20;99.90
52669;DHT22;59898;52.786;6.892;2023-02-18T04:38:30;9.20;99.90
52669;DHT22;59898;52.786;6.892;2023-02-18T04:41:50;9.20;99.90
52669;DHT22;59898;52.786;6.892;2023-02-18T04:45:11;9.20;99.90
52669;DHT22;59898;52.786;6.892;2023-02-18T04:48:32;9.20;99.90
52669;DHT22;59898;52.786;6.892;2023-02-18T04:51:54;9.20;99.90
52669;DHT22;59898;52.786;6.892;2023-02-18T04:55:15;9.30;99.90
52669;DHT22;59898;52.786;6.892;2023-02-18T04:58:36;9.30;99.90
52669;DHT22;59898;52.786;6.892;2023-02-18T05:01:56;9.30;99.90
52669;DHT22;59898;52.786;6.892;2023-02-18T05:05:17;9.30;99.90
52669;DHT22;59898;52.786;6.892;2023-02-18T05:08:38;9.30;99.90
52669;DHT22;59898;52.786;6.892;2023-02-18T05:11:58;9.30;99.90
52669;DHT22;59898;52.786;6.892;2023-02-18T05:15:19;9.30;99.90
52669;DHT22;59898;52.786;6.892;2023-02-18T05:18:40;9.30;99.90
52669;DHT22;59898;52.786;6.892;2023-02-18T05:22:01;9.30;99.90
52669;DHT22;59898;52.786;6.892;2023-02-18T05:25:21;9.30;99.90
52669;DHT22;59898;52.786;6.892;2023-02-18T05:28:42;9.30;99.90
52669;DHT22;59898;52.786;6.892;2023-02-18T05:32:03;9.30;99.90
52669;DHT22;59898;52.786;6.892;2023-02-18T05:35:23;9.30;99.90
52669;DHT22;59898;52.786;6.892;2023-02-18T05:38:44;9.30;99.90
52669;DHT22;59898;52.786;6.892;2023-02-18T05:42:05;9.30;99.90
52669;DHT22;59898;52.786;6.892;2023-02-18T05:45:26;9.30;99.90
52669;DHT22;59898;52.786;6.892;2023-02-18T05:48:47;9.30;99.90
52669;DHT22;59898;52.786;6.892;2023-02-18T05:52:08;9.30;99.90
52669;DHT22;59898;52.786;6.892;2023-02-18T05:55:29;9.30;99.90
52669;DHT22;59898;52.786;6.892;2023-02-18T05:58:50;9.30;99.90
52669;DHT22;59898;52.786;6.892;2023-02-18T06:02:11;9.30;99.90
52669;DHT22;59898;52.786;6.892;2023-02-18T06:05:32;9.20;99.90
52669;DHT22;59898;52.786;6.892;2023-02-18T06:08:52;9.30;99.90
52669;DHT22;59898;52.786;6.892;2023-02-18T06:12:13;9.20;99.90
52669;DHT22;59898;52.786;6.892;2023-02-18T06:15:34;9.20;99.90
52669;DHT22;59898;52.786;6.892;2023-02-18T06:18:54;9.30;99.90
52669;DHT22;59898;52.786;6.892;2023-02-18T06:22:15;9.30;99.90
52669;DHT22;59898;52.786;6.892;2023-02-18T06:25:36;9.30;99.90
52669;DHT22;59898;52.786;6.892;2023-02-18T06:28:56;9.30;99.90
52669;DHT22;59898;52.786;6.892;2023-02-18T06:32:17;9.30;99.90
52669;DHT22;59898;52.786;6.892;2023-02-18T06:35:38;9.30;99.90
52669;DHT22;59898;52.786;6.892;2023-02-18T06:39:01;9.30;99.90
52669;DHT22;59898;52.786;6.892;2023-02-18T06:42:22;9.30;99.90
52669;DHT22;59898;52.786;6.892;2023-02-18T06:45:43;9.40;99.90
52669;DHT22;59898;52.786;6.892;2023-02-18T06:49:03;9.40;99.90
52669;DHT22;59898;52.786;6.892;2023-02-18T06:52:24;9.40;99.90
52669;DHT22;59898;52.786;6.892;2023-02-18T06:55:45;9.40;99.90
52669;DHT22;59898;52.786;6.892;2023-02-18T06:59:06;9.50;99.90
52669;DHT22;59898;52.786;6.892;2023-02-18T07:02:27;9.50;99.90
52669;DHT22;59898;52.786;6.892;2023-02-18T07:05:48;9.50;99.90
52669;DHT22;59898;52.786;6.892;2023-02-18T07:09:09;9.50;99.90
52669;DHT22;59898;52.786;6.892;2023-02-18T07:12:29;9.60;99.90
52669;DHT22;59898;52.786;6.892;2023-02-18T07:15:50;9.60;99.90
52669;DHT22;59898;52.786;6.892;2023-02-18T07:19:11;9.60;99.90
52669;DHT22;59898;52.786;6.892;2023-02-18T07:22:32;9.60;99.90
52669;DHT22;59898;52.786;6.892;2023-02-18T07:26:05;9.70;99.90
52669;DHT22;59898;52.786;6.892;2023-02-18T07:29:26;9.70;99.90
52669;DHT22;59898;52.786;6.892;2023-02-18T07:32:47;9.70;99.90
52669;DHT22;59898;52.786;6.892;2023-02-18T07:36:08;9.70;99.90
52669;DHT22;59898;52.786;6.892;2023-02-18T07:39:28;9.80;99.90
52669;DHT22;59898;52.786;6.892;2023-02-18T07:42:49;9.80;99.90
52669;DHT22;59898;52.786;6.892;2023-02-18T07:46:10;9.80;99.90
52669;DHT22;59898;52.786;6.892;2023-02-18T07:49:31;9.80;99.90
52669;DHT22;59898;52.786;6.892;2023-02-18T07:52:52;9.80;99.90
52669;DHT22;59898;52.786;6.892;2023-02-18T07:56:14;9.80;99.90
52669;DHT22;59898;52.786;6.892;2023-02-18T07:59:35;9.80;99.90
52669;DHT22;59898;52.786;6.892;2023-02-18T08:02:55;9.80;99.90
52669;DHT22;59898;52.786;6.892;2023-02-18T08:06:30;9.80;99.90
52669;DHT22;59898;52.786;6.892;2023-02-18T08:09:50;9.80;99.90
52669;DHT22;59898;52.786;6.892;2023-02-18T08:13:11;9.80;99.90
52669;DHT22;59898;52.786;6.892;2023-02-18T08:16:33;9.80;99.90
52669;DHT22;59898;52.786;6.892;2023-02-18T08:19:54;9.80;99.90
52669;DHT22;59898;52.786;6.892;2023-02-18T08:23:15;9.80;99.90
52669;DHT22;59898;52.786;6.892;2023-02-18T08:26:36;9.80;99.90
52669;DHT22;59898;52.786;6.892;2023-02-18T08:29:57;9.90;99.90
52669;DHT22;59898;52.786;6.892;2023-02-18T08:33:18;9.90;99.90
52669;DHT22;59898;52.786;6.892;2023-02-18T08:36:39;10.00;99.90
52669;DHT22;59898;52.786;6.892;2023-02-18T08:40:01;10.00;99.90
52669;DHT22;59898;52.786;6.892;2023-02-18T08:43:21;10.00;99.90
52669;DHT22;59898;52.786;6.892;2023-02-18T08:46:42;10.00;99.90
52669;DHT22;59898;52.786;6.892;2023-02-18T08:50:04;10.10;99.90
52669;DHT22;59898;52.786;6.892;2023-02-18T08:53:25;10.10;99.90
52669;DHT22;59898;52.786;6.892;2023-02-18T08:56:46;10.10;99.90
52669;DHT22;59898;52.786;6.892;2023-02-18T09:00:08;10.10;99.90
52669;DHT22;59898;52.786;6.892;2023-02-18T09:03:28;10.10;99.90
52669;DHT22;59898;52.786;6.892;2023-02-18T09:06:49;10.10;99.90
52669;DHT22;59898;52.786;6.892;2023-02-18T09:10:10;10.10;99.90
52669;DHT22;59898;52.786;6.892;2023-02-18T09:13:32;10.10;99.90
52669;DHT22;59898;52.786;6.892;2023-02-18T09:16:53;10.10;99.90
52669;DHT22;59898;52.786;6.892;2023-02-18T09:20:13;10.10;99.90
52669;DHT22;59898;52.786;6.892;2023-02-18T09:23:34;10.10;99.90
52669;DHT22;59898;52.786;6.892;2023-02-18T09:26:55;10.10;99.90
52669;DHT22;59898;52.786;6.892;2023-02-18T09:30:16;10.00;99.90
52669;DHT22;59898;52.786;6.892;2023-02-18T09:33:42;9.90;99.90
52669;DHT22;59898;52.786;6.892;2023-02-18T09:37:04;9.90;99.90
52669;DHT22;59898;52.786;6.892;2023-02-18T09:40:30;9.80;99.90
52669;DHT22;59898;52.786;6.892;2023-02-18T09:43:58;9.80;99.90
52669;DHT22;59898;52.786;6.892;2023-02-18T09:47:36;9.70;99.90
52669;DHT22;59898;52.786;6.892;2023-02-18T09:50:58;9.70;99.90
52669;DHT22;59898;52.786;6.892;2023-02-18T09:54:19;9.60;99.90
52669;DHT22;59898;52.786;6.892;2023-02-18T09:57:44;9.60;99.90
52669;DHT22;59898;52.786;6.892;2023-02-18T10:01:13;9.50;99.90
52669;DHT22;59898;52.786;6.892;2023-02-18T10:04:43;9.50;99.90
52669;DHT22;59898;52.786;6.892;2023-02-18T10:08:44;9.50;99.90
52669;DHT22;59898;52.786;6.892;2023-02-18T10:12:15;9.50;99.90
52669;DHT22;59898;52.786;6.892;2023-02-18T10:15:37;9.50;99.90
52669;DHT22;59898;52.786;6.892;2023-02-18T10:19:50;9.40;99.90
52669;DHT22;59898;52.786;6.892;2023-02-18T10:22:45;9.40;99.90
52669;DHT22;59898;52.786;6.892;2023-02-18T10:26:11;9.40;99.90
52669;DHT22;59898;52.786;6.892;2023-02-18T10:29:34;9.40;99.90
52669;DHT22;59898;52.786;6.892;2023-02-18T10:36:46;9.40;99.90
52669;DHT22;59898;52.786;6.892;2023-02-18T10:51:28;9.50;99.90
52669;DHT22;59898;52.786;6.892;2023-02-18T11:01:53;9.80;99.90
52669;DHT22;59898;52.786;6.892;2023-02-18T11:05:24;9.90;99.90
52669;DHT22;59898;52.786;6.892;2023-02-18T11:08:46;9.90;99.90
52669;DHT22;59898;52.786;6.892;2023-02-18T11:12:22;10.00;99.90
52669;DHT22;59898;52.786;6.892;2023-02-18T11:16:00;10.00;99.90
52669;DHT22;59898;52.786;6.892;2023-02-18T11:19:38;10.00;99.90
52669;DHT22;59898;52.786;6.892;2023-02-18T11:26:30;10.10;99.90
52669;DHT22;59898;52.786;6.892;2023-02-18T11:29:58;10.10;99.90
52669;DHT22;59898;52.786;6.892;2023-02-18T11:33:36;10.20;99.90
52669;DHT22;59898;52.786;6.892;2023-02-18T11:37:09;10.20;99.90
52669;DHT22;59898;52.786;6.892;2023-02-18T11:40:35;10.20;99.90
52669;DHT22;59898;52.786;6.892;2023-02-18T11:43:56;10.20;99.90
52669;DHT22;59898;52.786;6.892;2023-02-18T11:50:38;10.30;99.90
52669;DHT22;59898;52.786;6.892;2023-02-18T11:54:02;10.30;99.90
52669;DHT22;59898;52.786;6.892;2023-02-18T11:57:23;10.30;99.90
52669;DHT22;59898;52.786;6.892;2023-02-18T12:00:47;10.30;99.90
52669;DHT22;59898;52.786;6.892;2023-02-18T12:04:15;10.30;99.90
52669;DHT22;59898;52.786;6.892;2023-02-18T12:07:46;10.40;99.90
52669;DHT22;59898;52.786;6.892;2023-02-18T12:11:17;10.40;99.90
52669;DHT22;59898;52.786;6.892;2023-02-18T12:14:40;10.50;99.90
52669;DHT22;59898;52.786;6.892;2023-02-18T12:18:17;10.60;99.90
52669;DHT22;59898;52.786;6.892;2023-02-18T12:21:52;10.70;99.90
52669;DHT22;59898;52.786;6.892;2023-02-18T12:36:16;10.80;99.90
52669;DHT22;59898;52.786;6.892;2023-02-18T12:47:29;10.90;99.90
52669;DHT22;59898;52.786;6.892;2023-02-18T12:58:31;11.00;99.90
52669;DHT22;59898;52.786;6.892;2023-02-18T13:09:53;11.10;99.90
52669;DHT22;59898;52.786;6.892;2023-02-18T13:13:22;11.10;99.90
52669;DHT22;59898;52.786;6.892;2023-02-18T13:16:47;11.10;99.90
52669;DHT22;59898;52.786;6.892;2023-02-18T13:20:22;11.20;99.90
52669;DHT22;59898;52.786;6.892;2023-02-18T13:41:45;11.30;99.90
52669;DHT22;59898;52.786;6.892;2023-02-18T13:48:51;11.40;99.90
52669;DHT22;59898;52.786;6.892;2023-02-18T13:52:17;11.00;99.90
52669;DHT22;59898;52.786;6.892;2023-02-18T13:56:02;11.30;99.90
52669;DHT22;59898;52.786;6.892;2023-02-18T13:59:48;11.40;99.90
52669;DHT22;59898;52.786;6.892;2023-02-18T14:10:38;11.30;99.90
52669;DHT22;59898;52.786;6.892;2023-02-18T14:20:47;11.30;99.90
52669;DHT22;59898;52.786;6.892;2023-02-18T14:24:11;11.20;99.90
52669;DHT22;59898;52.786;6.892;2023-02-18T14:27:33;11.20;99.90
52669;DHT22;59898;52.786;6.892;2023-02-18T14:30:54;11.20;99.90
52669;DHT22;59898;52.786;6.892;2023-02-18T14:41:51;11.20;99.90
52669;DHT22;59898;52.786;6.892;2023-02-18T14:45:47;11.20;99.90
52669;DHT22;59898;52.786;6.892;2023-02-18T14:49:51;11.20;99.90
52669;DHT22;59898;52.786;6.892;2023-02-18T14:52:56;11.10;99.90
52669;DHT22;59898;52.786;6.892;2023-02-18T14:56:20;11.10;99.90
52669;DHT22;59898;52.786;6.892;2023-02-18T14:59:43;11.10;99.90
52669;DHT22;59898;52.786;6.892;2023-02-18T15:03:14;11.00;99.90
52669;DHT22;59898;52.786;6.892;2023-02-18T15:06:36;11.10;99.90
52669;DHT22;59898;52.786;6.892;2023-02-18T15:09:57;11.00;99.90
52669;DHT22;59898;52.786;6.892;2023-02-18T15:13:21;11.00;99.90
52669;DHT22;59898;52.786;6.892;2023-02-18T15:16:44;10.90;99.90
52669;DHT22;59898;52.786;6.892;2023-02-18T15:20:05;11.00;99.90
52669;DHT22;59898;52.786;6.892;2023-02-18T15:23:26;10.90;99.90
52669;DHT22;59898;52.786;6.892;2023-02-18T15:26:49;11.00;99.90
52669;DHT22;59898;52.786;6.892;2023-02-18T15:30:24;10.90;99.90
52669;DHT22;59898;52.786;6.892;2023-02-18T15:33:46;10.90;99.90
52669;DHT22;59898;52.786;6.892;2023-02-18T15:37:11;10.90;99.90
52669;DHT22;59898;52.786;6.892;2023-02-18T15:40:35;10.90;99.90
52669;DHT22;59898;52.786;6.892;2023-02-18T15:44:01;10.90;99.90
52669;DHT22;59898;52.786;6.892;2023-02-18T15:47:23;10.80;99.90
52669;DHT22;59898;52.786;6.892;2023-02-18T15:50:50;10.80;99.90
52669;DHT22;59898;52.786;6.892;2023-02-18T15:54:15;10.80;99.90
52669;DHT22;59898;52.786;6.892;2023-02-18T15:57:37;10.70;99.90
52669;DHT22;59898;52.786;6.892;2023-02-18T16:01:01;10.70;99.90
52669;DHT22;59898;52.786;6.892;2023-02-18T16:04:27;10.70;99.90
52669;DHT22;59898;52.786;6.892;2023-02-18T16:07:51;10.70;99.90
52669;DHT22;59898;52.786;6.892;2023-02-18T16:11:13;10.70;99.90
52669;DHT22;59898;52.786;6.892;2023-02-18T16:14:46;10.60;99.90
52669;DHT22;59898;52.786;6.892;2023-02-18T16:18:36;10.60;99.90
52669;DHT22;59898;52.786;6.892;2023-02-18T16:22:03;10.60;99.90
52669;DHT22;59898;52.786;6.892;2023-02-18T16:25:47;10.60;99.90
52669;DHT22;59898;52.786;6.892;2023-02-18T16:29:22;10.60;99.90
52669;DHT22;59898;52.786;6.892;2023-02-18T16:32:44;10.50;99.90
52669;DHT22;59898;52.786;6.892;2023-02-18T16:36:05;10.50;99.90
52669;DHT22;59898;52.786;6.892;2023-02-18T16:39:27;10.50;99.90
52669;DHT22;59898;52.786;6.892;2023-02-18T16:42:49;10.50;99.90
52669;DHT22;59898;52.786;6.892;2023-02-18T16:46:17;10.40;99.90
52669;DHT22;59898;52.786;6.892;2023-02-18T16:49:39;10.40;99.90
52669;DHT22;59898;52.786;6.892;2023-02-18T16:53:01;10.40;99.90
52669;DHT22;59898;52.786;6.892;2023-02-18T16:56:24;10.40;99.90
52669;DHT22;59898;52.786;6.892;2023-02-18T16:59:45;10.40;99.90
52669;DHT22;59898;52.786;6.892;2023-02-18T17:03:06;10.30;99.90
52669;DHT22;59898;52.786;6.892;2023-02-18T17:06:28;10.70;99.90
52669;DHT22;59898;52.786;6.892;2023-02-18T17:09:49;10.30;99.90
52669;DHT22;59898;52.786;6.892;2023-02-18T17:13:14;10.30;99.90
52669;DHT22;59898;52.786;6.892;2023-02-18T17:16:35;10.30;99.90
52669;DHT22;59898;52.786;6.892;2023-02-18T17:19:56;10.30;99.90
52669;DHT22;59898;52.786;6.892;2023-02-18T17:23:19;10.20;99.90
52669;DHT22;59898;52.786;6.892;2023-02-18T17:26:43;10.20;99.90
52669;DHT22;59898;52.786;6.892;2023-02-18T17:30:04;10.20;99.90
52669;DHT22;59898;52.786;6.892;2023-02-18T17:33:25;10.20;99.90
52669;DHT22;59898;52.786;6.892;2023-02-18T17:36:46;10.20;99.90
52669;DHT22;59898;52.786;6.892;2023-02-18T17:40:12;10.20;99.90
52669;DHT22;59898;52.786;6.892;2023-02-18T17:43:34;10.20;99.90
52669;DHT22;59898;52.786;6.892;2023-02-18T17:46:54;10.10;99.90
52669;DHT22;59898;52.786;6.892;2023-02-18T17:50:15;10.10;99.90
52669;DHT22;59898;52.786;6.892;2023-02-18T17:53:36;10.10;99.90
52669;DHT22;59898;52.786;6.892;2023-02-18T17:56:57;10.10;99.90
52669;DHT22;59898;52.786;6.892;2023-02-18T18:00:38;10.10;99.90
52669;DHT22;59898;52.786;6.892;2023-02-18T18:03:59;10.10;99.90
52669;DHT22;59898;52.786;6.892;2023-02-18T18:07:20;10.10;99.90
52669;DHT22;59898;52.786;6.892;2023-02-18T18:10:47;10.10;99.90
52669;DHT22;59898;52.786;6.892;2023-02-18T18:14:10;10.10;99.90
52669;DHT22;59898;52.786;6.892;2023-02-18T18:17:32;10.10;99.90
52669;DHT22;59898;52.786;6.892;2023-02-18T18:20:57;10.10;99.90
52669;DHT22;59898;52.786;6.892;2023-02-18T18:24:18;10.10;99.90
52669;DHT22;59898;52.786;6.892;2023-02-18T18:27:39;10.10;99.90
52669;DHT22;59898;52.786;6.892;2023-02-18T18:30:59;10.10;99.90
52669;DHT22;59898;52.786;6.892;2023-02-18T18:34:21;10.10;99.90
52669;DHT22;59898;52.786;6.892;2023-02-18T18:37:42;10.10;99.90
52669;DHT22;59898;52.786;6.892;2023-02-18T18:41:03;10.10;99.90
52669;DHT22;59898;52.786;6.892;2023-02-18T18:44:23;10.10;99.90
52669;DHT22;59898;52.786;6.892;2023-02-18T18:47:45;10.10;99.90
52669;DHT22;59898;52.786;6.892;2023-02-18T18:51:06;10.00;99.90
52669;DHT22;59898;52.786;6.892;2023-02-18T18:54:26;10.00;99.90
52669;DHT22;59898;52.786;6.892;2023-02-18T18:57:47;10.00;99.90
52669;DHT22;59898;52.786;6.892;2023-02-18T19:01:26;10.00;99.90
52669;DHT22;59898;52.786;6.892;2023-02-18T19:04:48;10.00;99.90
52669;DHT22;59898;52.786;6.892;2023-02-18T19:08:10;10.00;99.90
52669;DHT22;59898;52.786;6.892;2023-02-18T19:11:31;10.00;99.90
52669;DHT22;59898;52.786;6.892;2023-02-18T19:14:52;10.00;99.90
52669;DHT22;59898;52.786;6.892;2023-02-18T19:18:15;10.00;99.90
52669;DHT22;59898;52.786;6.892;2023-02-18T19:21:36;10.00;99.90
52669;DHT22;59898;52.786;6.892;2023-02-18T19:24:56;10.00;99.90
52669;DHT22;59898;52.786;6.892;2023-02-18T19:28:17;10.10;99.90
52669;DHT22;59898;52.786;6.892;2023-02-18T19:31:38;10.00;99.90
52669;DHT22;59898;52.786;6.892;2023-02-18T19:34:58;10.00;99.90
52669;DHT22;59898;52.786;6.892;2023-02-18T19:38:19;9.90;99.90
52669;DHT22;59898;52.786;6.892;2023-02-18T19:41:40;9.90;99.90
52669;DHT22;59898;52.786;6.892;2023-02-18T19:45:01;9.90;99.90
52669;DHT22;59898;52.786;6.892;2023-02-18T19:48:22;9.90;99.90
52669;DHT22;59898;52.786;6.892;2023-02-18T19:51:43;9.90;99.90
52669;DHT22;59898;52.786;6.892;2023-02-18T19:55:04;9.90;99.90
52669;DHT22;59898;52.786;6.892;2023-02-18T19:58:25;9.90;99.90
52669;DHT22;59898;52.786;6.892;2023-02-18T20:01:46;9.90;99.90
52669;DHT22;59898;52.786;6.892;2023-02-18T20:05:08;9.80;99.90
52669;DHT22;59898;52.786;6.892;2023-02-18T20:08:29;9.80;99.90
52669;DHT22;59898;52.786;6.892;2023-02-18T20:11:50;9.80;99.90
52669;DHT22;59898;52.786;6.892;2023-02-18T20:15:12;9.80;99.90
52669;DHT22;59898;52.786;6.892;2023-02-18T20:18:33;9.80;99.90
52669;DHT22;59898;52.786;6.892;2023-02-18T20:21:53;9.80;99.90
52669;DHT22;59898;52.786;6.892;2023-02-18T20:25:15;9.80;99.90
52669;DHT22;59898;52.786;6.892;2023-02-18T20:28:36;9.80;99.90
52669;DHT22;59898;52.786;6.892;2023-02-18T20:31:56;9.80;99.90
52669;DHT22;59898;52.786;6.892;2023-02-18T20:35:17;9.80;99.90
52669;DHT22;59898;52.786;6.892;2023-02-18T20:38:38;9.80;99.90
52669;DHT22;59898;52.786;6.892;2023-02-18T20:41:59;9.70;99.90
52669;DHT22;59898;52.786;6.892;2023-02-18T20:45:19;9.80;99.90
52669;DHT22;59898;52.786;6.892;2023-02-18T20:48:41;9.80;99.90
52669;DHT22;59898;52.786;6.892;2023-02-18T20:52:01;9.80;99.90
52669;DHT22;59898;52.786;6.892;2023-02-18T20:55:22;9.80;99.90
52669;DHT22;59898;52.786;6.892;2023-02-18T20:58:43;9.80;99.90
52669;DHT22;59898;52.786;6.892;2023-02-18T21:02:04;9.70;99.90
52669;DHT22;59898;52.786;6.892;2023-02-18T21:05:25;9.70;99.90
52669;DHT22;59898;52.786;6.892;2023-02-18T21:08:47;9.70;99.90
52669;DHT22;59898;52.786;6.892;2023-02-18T21:12:08;9.80;99.90
52669;DHT22;59898;52.786;6.892;2023-02-18T21:15:29;9.70;99.90
52669;DHT22;59898;52.786;6.892;2023-02-18T21:18:50;9.70;99.90
52669;DHT22;59898;52.786;6.892;2023-02-18T21:22:10;9.70;99.90
52669;DHT22;59898;52.786;6.892;2023-02-18T21:25:32;9.70;99.90
52669;DHT22;59898;52.786;6.892;2023-02-18T21:28:55;9.70;99.90
52669;DHT22;59898;52.786;6.892;2023-02-18T21:32:16;9.70;99.90
52669;DHT22;59898;52.786;6.892;2023-02-18T21:35:38;9.70;99.90
52669;DHT22;59898;52.786;6.892;2023-02-18T21:39:01;9.70;99.90
52669;DHT22;59898;52.786;6.892;2023-02-18T21:42:23;9.70;99.90
52669;DHT22;59898;52.786;6.892;2023-02-18T21:45:43;9.70;99.90
52669;DHT22;59898;52.786;6.892;2023-02-18T21:49:04;9.60;99.90
52669;DHT22;59898;52.786;6.892;2023-02-18T21:52:28;9.60;99.90
52669;DHT22;59898;52.786;6.892;2023-02-18T21:55:50;9.60;99.90
52669;DHT22;59898;52.786;6.892;2023-02-18T21:59:10;9.60;99.90
52669;DHT22;59898;52.786;6.892;2023-02-18T22:02:32;9.60;99.90
52669;DHT22;59898;52.786;6.892;2023-02-18T22:05:53;9.70;99.90
52669;DHT22;59898;52.786;6.892;2023-02-18T22:09:14;9.70;99.90
52669;DHT22;59898;52.786;6.892;2023-02-18T22:12:34;9.60;99.90
52669;DHT22;59898;52.786;6.892;2023-02-18T22:15:56;9.70;99.90
52669;DHT22;59898;52.786;6.892;2023-02-18T22:19:16;9.60;99.90
52669;DHT22;59898;52.786;6.892;2023-02-18T22:22:37;9.60;99.90
52669;DHT22;59898;52.786;6.892;2023-02-18T22:26:02;9.60;99.90
52669;DHT22;59898;52.786;6.892;2023-02-18T22:29:23;9.70;99.90
52669;DHT22;59898;52.786;6.892;2023-02-18T22:32:44;9.60;99.90
52669;DHT22;59898;52.786;6.892;2023-02-18T22:36:05;9.70;99.90
52669;DHT22;59898;52.786;6.892;2023-02-18T22:39:26;9.70;99.90
52669;DHT22;59898;52.786;6.892;2023-02-18T22:42:47;9.70;99.90
52669;DHT22;59898;52.786;6.892;2023-02-18T22:46:16;9.70;99.90
52669;DHT22;59898;52.786;6.892;2023-02-18T22:49:37;9.70;99.90
52669;DHT22;59898;52.786;6.892;2023-02-18T22:52:57;9.60;99.90
52669;DHT22;59898;52.786;6.892;2023-02-18T22:56:19;9.60;99.90
52669;DHT22;59898;52.786;6.892;2023-02-18T22:59:40;9.60;99.90
52669;DHT22;59898;52.786;6.892;2023-02-18T23:03:01;9.60;99.90
52669;DHT22;59898;52.786;6.892;2023-02-18T23:06:22;9.60;99.90
52669;DHT22;59898;52.786;6.892;2023-02-18T23:09:43;9.50;99.90
52669;DHT22;59898;52.786;6.892;2023-02-18T23:13:03;9.50;99.90
52669;DHT22;59898;52.786;6.892;2023-02-18T23:16:24;9.50;99.90
52669;DHT22;59898;52.786;6.892;2023-02-18T23:19:47;9.50;99.90
52669;DHT22;59898;52.786;6.892;2023-02-18T23:23:08;9.50;99.90
52669;DHT22;59898;52.786;6.892;2023-02-18T23:26:29;9.50;99.90
52669;DHT22;59898;52.786;6.892;2023-02-18T23:29:50;9.50;99.90
52669;DHT22;59898;52.786;6.892;2023-02-18T23:33:11;9.50;99.90
52669;DHT22;59898;52.786;6.892;2023-02-18T23:36:33;9.40;99.90
52669;DHT22;59898;52.786;6.892;2023-02-18T23:39:54;9.50;99.90
52669;DHT22;59898;52.786;6.892;2023-02-18T23:43:15;9.40;99.90
52669;DHT22;59898;52.786;6.892;2023-02-18T23:46:35;9.40;99.90
52669;DHT22;59898;52.786;6.892;2023-02-18T23:49:56;9.40;99.90
52669;DHT22;59898;52.786;6.892;2023-02-18T23:53:17;9.40;99.90
52669;DHT22;59898;52.786;6.892;2023-02-18T23:56:38;9.40;99.90
52669;DHT22;59898;52.786;6.892;2023-02-18T23:59:59;9.40;99.90
